| time (UTC) | temp F | wind direction | speed MPH | gust MPH | rain 1hr in | rain 24hr in | rain mn in | humidity % | barometer mb |
| 20260504050411 | 116 | 0 | 0.0 | 0.0 | 0.00 | 0.00 | 0.00 | 27 | 993.0 |
| 20260504045348 | 115 | 0 | 0.0 | 0.0 | 0.00 | 0.00 | 0.00 | 28 | 993.0 |
| 20260504044325 | 115 | 0 | 0.0 | 0.0 | 0.00 | 0.00 | 0.00 | 28 | 993.0 |
| 20260504043302 | 114 | 0 | 0.0 | 0.0 | 0.00 | 0.00 | 0.00 | 28 | 993.0 |
| 20260504042238 | 114 | 0 | 0.0 | 0.0 | 0.00 | 0.00 | 0.00 | 29 | 993.0 |
| 20260504041214 | 113 | 0 | 0.0 | 0.0 | 0.00 | 0.00 | 0.00 | 29 | 993.0 |
| 20260504040151 | 113 | 0 | 0.0 | 0.0 | 0.00 | 0.00 | 0.00 | 29 | 993.0 |
| 20260504035128 | 112 | 0 | 0.0 | 0.0 | 0.00 | 0.00 | 0.00 | 30 | 994.0 |
| 20260504034103 | 112 | 0 | 0.0 | 0.0 | 0.00 | 0.00 | 0.00 | 30 | 994.0 |
| 20260504033038 | 111 | 0 | 0.0 | 0.0 | 0.00 | 0.00 | 0.00 | 31 | 994.0 |
| 20260504032013 | 111 | 0 | 0.0 | 0.0 | 0.00 | 0.00 | 0.00 | 31 | 994.0 |
| 20260504030950 | 111 | 0 | 0.0 | 0.0 | 0.00 | 0.00 | 0.00 | 31 | 994.0 |
| 20260504025925 | 110 | 0 | 0.0 | 0.0 | 0.00 | 0.00 | 0.00 | 31 | 994.0 |
| 20260504024902 | 109 | 0 | 0.0 | 0.0 | 0.00 | 0.00 | 0.00 | 32 | 994.0 |
| 20260504023837 | 108 | 0 | 0.0 | 0.0 | 0.00 | 0.00 | 0.00 | 32 | 995.0 |
| 20260504022814 | 108 | 0 | 0.0 | 0.0 | 0.00 | 0.00 | 0.00 | 32 | 995.0 |
| 20260504021749 | 107 | 0 | 0.0 | 0.0 | 0.00 | 0.00 | 0.00 | 33 | 995.0 |
| 20260504020724 | 106 | 0 | 0.0 | 0.0 | 0.00 | 0.00 | 0.00 | 34 | 995.0 |
| 20260504015700 | 106 | 0 | 0.0 | 0.0 | 0.00 | 0.00 | 0.00 | 35 | 995.0 |
| 20260504014636 | 105 | 0 | 0.0 | 0.0 | 0.00 | 0.00 | 0.00 | 35 | 995.0 |
| 20260504013612 | 105 | 0 | 0.0 | 0.0 | 0.00 | 0.00 | 0.00 | 36 | 995.0 |
| 20260504012548 | 105 | 0 | 0.0 | 0.0 | 0.00 | 0.00 | 0.00 | 36 | 995.0 |
| 20260504011525 | 104 | 0 | 0.0 | 0.0 | 0.00 | 0.00 | 0.00 | 38 | 995.0 |
| 20260504010501 | 104 | 0 | 0.0 | 0.0 | 0.00 | 0.00 | 0.00 | 37 | 994.0 |
| 20260504005436 | 103 | 0 | 0.0 | 0.0 | 0.00 | 0.00 | 0.00 | 37 | 994.0 |
| 20260504004411 | 103 | 0 | 0.0 | 0.0 | 0.00 | 0.00 | 0.00 | 38 | 994.0 |
| 20260504003349 | 102 | 0 | 0.0 | 0.0 | 0.00 | 0.00 | 0.00 | 38 | 994.0 |
| 20260504002325 | 102 | 0 | 0.0 | 0.0 | 0.00 | 0.00 | 0.00 | 39 | 994.0 |
| 20260504001301 | 101 | 0 | 0.0 | 0.0 | 0.00 | 0.00 | 0.00 | 39 | 994.0 |
| 20260504000238 | 101 | 0 | 0.0 | 0.0 | 0.00 | 0.00 | 0.00 | 40 | 993.0 |
| 20260503235212 | 101 | 0 | 0.0 | 0.0 | 0.00 | 0.00 | 0.00 | 39 | 993.0 |
| 20260503234137 | 101 | 0 | 0.0 | 0.0 | 0.00 | 0.00 | 0.00 | 39 | 993.0 |
| 20260503233106 | 101 | 0 | 0.0 | 0.0 | 0.00 | 0.00 | 0.00 | 39 | 993.0 |
| 20260503232043 | 101 | 0 | 0.0 | 0.0 | 0.00 | 0.00 | 0.00 | 38 | 993.0 |
| 20260503231019 | 101 | 0 | 0.0 | 0.0 | 0.00 | 0.00 | 0.00 | 39 | 993.0 |
| 20260503225956 | 101 | 0 | 0.0 | 0.0 | 0.00 | 0.00 | 0.00 | 39 | 992.0 |
| 20260503224932 | 101 | 0 | 0.0 | 0.0 | 0.00 | 0.00 | 0.00 | 39 | 992.0 |
| 20260503223909 | 102 | 0 | 0.0 | 0.0 | 0.00 | 0.00 | 0.00 | 38 | 992.0 |
| 20260503222847 | 102 | 0 | 0.0 | 0.0 | 0.00 | 0.00 | 0.00 | 38 | 992.0 |
| 20260503221824 | 102 | 0 | 0.0 | 0.0 | 0.00 | 0.00 | 0.00 | 37 | 992.0 |
| 20260503220801 | 102 | 0 | 0.0 | 0.0 | 0.00 | 0.00 | 0.00 | 37 | 992.0 |
| 20260503215737 | 102 | 0 | 0.0 | 0.0 | 0.00 | 0.00 | 0.00 | 37 | 992.0 |
| 20260503214715 | 103 | 0 | 0.0 | 0.0 | 0.00 | 0.00 | 0.00 | 36 | 992.0 |
| 20260503213651 | 103 | 0 | 0.0 | 0.0 | 0.00 | 0.00 | 0.00 | 36 | 991.0 |
| 20260503212629 | 103 | 0 | 0.0 | 0.0 | 0.00 | 0.00 | 0.00 | 36 | 991.0 |
| 20260503211605 | 103 | 0 | 0.0 | 0.0 | 0.00 | 0.00 | 0.00 | 36 | 991.0 |
| 20260503210510 | 103 | 0 | 0.0 | 0.0 | 0.00 | 0.00 | 0.00 | 36 | 991.0 |
| 20260503205447 | 103 | 0 | 0.0 | 0.0 | 0.00 | 0.00 | 0.00 | 35 | 991.0 |
| 20260503204423 | 103 | 0 | 0.0 | 0.0 | 0.00 | 0.00 | 0.00 | 36 | 991.0 |
| 20260503203359 | 103 | 0 | 0.0 | 0.0 | 0.00 | 0.00 | 0.00 | 35 | 991.0 |
| 20260503202336 | 104 | 0 | 0.0 | 0.0 | 0.00 | 0.00 | 0.00 | 35 | 991.0 |
| 20260503201312 | 103 | 0 | 0.0 | 0.0 | 0.00 | 0.00 | 0.00 | 35 | 991.0 |
| 20260503200249 | 104 | 0 | 0.0 | 0.0 | 0.00 | 0.00 | 0.00 | 35 | 991.0 |
| 20260503195227 | 104 | 0 | 0.0 | 0.0 | 0.00 | 0.00 | 0.00 | 35 | 991.0 |
| 20260503194204 | 104 | 0 | 0.0 | 0.0 | 0.00 | 0.00 | 0.00 | 35 | 991.0 |
| 20260503193141 | 104 | 0 | 0.0 | 0.0 | 0.00 | 0.00 | 0.00 | 35 | 991.0 |
| 20260503192118 | 104 | 0 | 0.0 | 0.0 | 0.00 | 0.00 | 0.00 | 35 | 991.0 |
| 20260503191054 | 104 | 0 | 0.0 | 0.0 | 0.00 | 0.00 | 0.00 | 35 | 991.0 |
| 20260503190032 | 104 | 0 | 0.0 | 0.0 | 0.00 | 0.00 | 0.00 | 35 | 991.0 |
| 20260503185008 | 104 | 0 | 0.0 | 0.0 | 0.00 | 0.00 | 0.00 | 35 | 991.0 |
| 20260503183945 | 104 | 0 | 0.0 | 0.0 | 0.00 | 0.00 | 0.00 | 35 | 991.0 |
| 20260503182923 | 104 | 0 | 0.0 | 0.0 | 0.00 | 0.00 | 0.00 | 35 | 991.0 |
| 20260503181900 | 104 | 0 | 0.0 | 0.0 | 0.00 | 0.00 | 0.00 | 35 | 991.0 |
| 20260503180838 | 105 | 0 | 0.0 | 0.0 | 0.00 | 0.00 | 0.00 | 35 | 992.0 |
| 20260503175814 | 105 | 0 | 0.0 | 0.0 | 0.00 | 0.00 | 0.00 | 34 | 992.0 |
| 20260503174752 | 105 | 0 | 0.0 | 0.0 | 0.00 | 0.00 | 0.00 | 34 | 992.0 |
| 20260503173730 | 104 | 0 | 0.0 | 0.0 | 0.00 | 0.00 | 0.00 | 34 | 992.0 |
| 20260503172706 | 104 | 0 | 0.0 | 0.0 | 0.00 | 0.00 | 0.00 | 34 | 992.0 |
| 20260503171642 | 104 | 0 | 0.0 | 0.0 | 0.00 | 0.00 | 0.00 | 35 | 992.0 |
| 20260503170618 | 105 | 0 | 0.0 | 0.0 | 0.00 | 0.00 | 0.00 | 35 | 992.0 |
| 20260503150140 | 107 | 0 | 0.0 | 0.0 | 0.00 | 0.00 | 0.00 | 32 | 991.0 |
| 20260503130723 | 110 | 0 | 0.0 | 0.0 | 0.00 | 0.00 | 0.00 | 34 | 989.0 |
| 20260503110209 | 115 | 0 | 0.0 | 0.0 | 0.00 | 0.00 | 0.00 | 28 | 987.0 |